createdAt,value
2018-07-13T17:22:39.409Z,27.00
2018-07-13T17:25:14.408Z,26.80
2018-07-13T17:27:49.824Z,26.50
2018-07-13T17:30:24.757Z,26.30
2018-07-13T17:33:01.245Z,26.30
2018-07-13T17:35:35.864Z,26.30
2018-07-13T17:38:11.831Z,26.20
2018-07-13T17:40:46.606Z,26.00
2018-07-13T17:43:21.483Z,25.90
2018-07-13T17:45:56.409Z,25.80
2018-07-13T17:48:31.411Z,25.70
2018-07-13T17:51:06.750Z,25.60
2018-07-13T17:53:41.625Z,25.60
2018-07-13T17:56:18.945Z,25.50
2018-07-13T17:58:53.729Z,25.70
2018-07-13T18:01:28.597Z,25.80
2018-07-13T18:06:42.117Z,25.90
2018-07-13T18:09:16.876Z,25.80
2018-07-13T18:11:51.616Z,25.60
2018-07-13T18:17:03.357Z,26.40
2018-07-13T18:19:38.197Z,26.80
2018-07-13T18:22:14.516Z,26.50
2018-07-13T18:27:24.243Z,25.90
2018-07-13T18:29:59.003Z,26.00
2018-07-13T18:37:41.892Z,26.50
2018-07-13T18:40:16.870Z,26.10
2018-07-13T18:42:51.755Z,25.80
2018-07-13T18:45:26.531Z,25.80
2018-07-13T18:48:01.286Z,26.10
2018-07-13T18:50:36.047Z,26.60
2018-07-13T18:53:13.120Z,26.70
2018-07-13T18:55:48.765Z,26.20
2018-07-13T18:58:23.451Z,25.90
2018-07-13T19:03:32.848Z,26.20
2018-07-13T19:06:07.471Z,26.70
2018-07-13T19:08:42.394Z,26.80
2018-07-13T19:11:17.063Z,26.40
2018-07-13T19:13:52.045Z,26.30
2018-07-13T19:16:29.680Z,26.50
2018-07-13T19:19:04.773Z,26.80
2018-07-13T19:21:40.341Z,26.70
2018-07-13T19:29:22.007Z,26.40
2018-07-13T19:31:56.842Z,26.70
2018-07-13T19:37:04.900Z,26.30
2018-07-13T19:39:39.406Z,26.00
2018-07-13T19:42:14.359Z,26.30
2018-07-13T19:44:49.088Z,26.70
2018-07-13T19:47:23.817Z,26.90
2018-07-13T19:49:59.918Z,26.50
2018-07-13T19:52:34.523Z,26.30
2018-07-13T19:55:10.717Z,26.40
2018-07-13T20:00:18.717Z,26.80
2018-07-13T20:05:26.788Z,26.10
2018-07-13T20:08:01.769Z,26.40
2018-07-13T20:10:36.351Z,26.70
2018-07-13T20:13:11.186Z,26.70
2018-07-13T20:15:46.166Z,26.40
2018-07-13T20:20:54.533Z,26.70
2018-07-13T20:23:29.585Z,26.80
2018-07-13T20:26:04.958Z,26.30
2018-07-13T20:28:39.736Z,26.30
2018-07-13T20:31:14.693Z,26.60
2018-07-13T20:33:49.457Z,26.80
2018-07-13T20:41:31.157Z,26.40
2018-07-13T20:46:39.234Z,26.20
2018-07-13T20:49:13.923Z,26.00
2018-07-13T20:51:48.877Z,26.20
2018-07-13T20:54:24.440Z,26.50
2018-07-13T20:56:59.383Z,26.50
2018-07-13T20:59:34.223Z,25.90
2018-07-13T21:02:09.688Z,26.10
2018-07-13T21:04:44.788Z,26.40
2018-07-13T21:07:19.926Z,26.50
2018-07-13T21:09:54.865Z,25.80
2018-07-13T21:12:29.602Z,26.00
2018-07-13T21:15:04.582Z,26.30
2018-07-13T21:17:39.451Z,26.50
2018-07-13T21:20:14.246Z,26.00
2018-07-13T21:25:23.777Z,26.30
2018-07-13T21:30:31.798Z,26.10
2018-07-13T21:33:06.436Z,26.00
2018-07-13T21:35:42.001Z,26.30
2018-07-13T21:38:16.691Z,26.60
2018-07-13T21:43:24.884Z,25.90
2018-07-13T21:45:59.536Z,26.10
2018-07-13T21:48:34.489Z,26.50
2018-07-13T21:51:09.328Z,26.30
2018-07-13T21:53:43.762Z,26.10
2018-07-13T21:56:18.448Z,26.20
2018-07-13T22:01:26.845Z,26.40
2018-07-13T22:04:01.725Z,26.10
2018-07-13T22:06:38.215Z,26.30
2018-07-13T22:09:12.825Z,26.60
2018-07-13T22:11:49.406Z,26.40
2018-07-13T22:16:59.536Z,26.30
2018-07-13T22:19:34.479Z,26.50
2018-07-13T22:22:09.284Z,26.30
2018-07-13T22:27:17.563Z,26.20
2018-07-13T22:29:52.347Z,26.50
2018-07-13T22:35:00.835Z,26.10
2018-07-13T22:37:36.227Z,26.30
2018-07-13T22:40:10.986Z,26.50
2018-07-13T22:42:45.651Z,26.30
2018-07-13T22:45:20.660Z,26.00
2018-07-13T22:47:56.096Z,26.30
2018-07-13T22:50:31.905Z,26.50
2018-07-13T22:53:06.657Z,26.30
2018-07-13T22:55:41.400Z,26.10
2018-07-13T22:58:15.951Z,26.30
2018-07-13T23:00:52.377Z,26.50
2018-07-13T23:03:29.017Z,26.30
2018-07-13T23:06:06.506Z,26.20
2018-07-13T23:08:42.257Z,26.40
2018-07-13T23:14:27.073Z,26.20
2018-07-13T23:17:03.451Z,26.00
2018-07-13T23:19:38.947Z,26.10
2018-07-13T23:22:13.990Z,26.30
2018-07-13T23:24:48.548Z,26.50
2018-07-13T23:27:23.201Z,26.70
2018-07-13T23:29:57.899Z,26.80
2018-07-13T23:32:35.060Z,26.90
2018-07-13T23:35:10.859Z,27.00
2018-07-13T23:37:48.433Z,27.00
2018-07-13T23:40:23.401Z,27.10
2018-07-13T23:45:33.141Z,27.20
2018-07-13T23:48:09.091Z,27.20
2018-07-13T23:50:44.117Z,27.20
2018-07-13T23:53:18.719Z,27.20
2018-07-13T23:55:53.506Z,27.20
2018-07-13T23:58:30.135Z,27.30
